sensor_id;sensor_type;location;lat;lon;timestamp;P1;durP1;ratioP1;P2;durP2;ratioP2
42864;SDS011;28511;42.680;23.252;2023-04-08T00:01:46;5.60;;;4.78;;
42864;SDS011;28511;42.680;23.252;2023-04-08T00:04:11;5.82;;;3.00;;
42864;SDS011;28511;42.680;23.252;2023-04-08T00:06:38;8.07;;;3.22;;
42864;SDS011;28511;42.680;23.252;2023-04-08T00:09:03;14.80;;;6.60;;
42864;SDS011;28511;42.680;23.252;2023-04-08T00:11:28;4.75;;;3.80;;
42864;SDS011;28511;42.680;23.252;2023-04-08T00:13:54;8.57;;;3.65;;
42864;SDS011;28511;42.680;23.252;2023-04-08T00:16:20;4.65;;;3.22;;
42864;SDS011;28511;42.680;23.252;2023-04-08T00:18:45;8.95;;;4.65;;
42864;SDS011;28511;42.680;23.252;2023-04-08T00:21:10;5.25;;;4.63;;
42864;SDS011;28511;42.680;23.252;2023-04-08T00:23:35;8.82;;;4.30;;
42864;SDS011;28511;42.680;23.252;2023-04-08T00:26:01;8.02;;;6.00;;
42864;SDS011;28511;42.680;23.252;2023-04-08T00:28:26;6.25;;;4.18;;
42864;SDS011;28511;42.680;23.252;2023-04-08T00:30:51;7.38;;;4.28;;
42864;SDS011;28511;42.680;23.252;2023-04-08T00:33:17;9.70;;;3.63;;
42864;SDS011;28511;42.680;23.252;2023-04-08T00:35:42;3.28;;;2.60;;
42864;SDS011;28511;42.680;23.252;2023-04-08T00:38:08;11.65;;;4.03;;
42864;SDS011;28511;42.680;23.252;2023-04-08T00:40:33;7.38;;;4.70;;
42864;SDS011;28511;42.680;23.252;2023-04-08T00:42:59;10.05;;;3.40;;
42864;SDS011;28511;42.680;23.252;2023-04-08T00:45:24;4.10;;;2.58;;
42864;SDS011;28511;42.680;23.252;2023-04-08T00:47:49;5.43;;;2.35;;
42864;SDS011;28511;42.680;23.252;2023-04-08T00:50:16;6.75;;;3.50;;
42864;SDS011;28511;42.680;23.252;2023-04-08T00:52:42;9.90;;;5.38;;
42864;SDS011;28511;42.680;23.252;2023-04-08T00:55:07;10.15;;;5.95;;
42864;SDS011;28511;42.680;23.252;2023-04-08T00:57:32;6.75;;;4.25;;
42864;SDS011;28511;42.680;23.252;2023-04-08T00:59:59;14.90;;;4.47;;
42864;SDS011;28511;42.680;23.252;2023-04-08T01:07:24;7.97;;;4.38;;
42864;SDS011;28511;42.680;23.252;2023-04-08T01:09:52;7.32;;;4.95;;
42864;SDS011;28511;42.680;23.252;2023-04-08T01:12:23;11.55;;;5.70;;
42864;SDS011;28511;42.680;23.252;2023-04-08T01:14:51;7.97;;;5.18;;
42864;SDS011;28511;42.680;23.252;2023-04-08T01:17:19;7.47;;;4.82;;
42864;SDS011;28511;42.680;23.252;2023-04-08T01:19:46;4.88;;;3.65;;
42864;SDS011;28511;42.680;23.252;2023-04-08T01:22:26;5.82;;;4.53;;
42864;SDS011;28511;42.680;23.252;2023-04-08T01:24:56;6.82;;;4.70;;
42864;SDS011;28511;42.680;23.252;2023-04-08T01:27:23;6.03;;;2.72;;
42864;SDS011;28511;42.680;23.252;2023-04-08T01:29:49;10.55;;;5.82;;
42864;SDS011;28511;42.680;23.252;2023-04-08T01:32:15;10.38;;;5.30;;
42864;SDS011;28511;42.680;23.252;2023-04-08T01:34:41;10.35;;;6.05;;
42864;SDS011;28511;42.680;23.252;2023-04-08T01:37:07;6.25;;;3.67;;
42864;SDS011;28511;42.680;23.252;2023-04-08T01:39:32;8.13;;;3.40;;
42864;SDS011;28511;42.680;23.252;2023-04-08T01:41:58;5.63;;;4.28;;
42864;SDS011;28511;42.680;23.252;2023-04-08T01:44:24;9.00;;;4.13;;
42864;SDS011;28511;42.680;23.252;2023-04-08T01:46:50;14.32;;;7.53;;
42864;SDS011;28511;42.680;23.252;2023-04-08T01:49:16;10.85;;;5.82;;
42864;SDS011;28511;42.680;23.252;2023-04-08T01:51:42;10.40;;;5.22;;
42864;SDS011;28511;42.680;23.252;2023-04-08T01:54:08;10.60;;;6.10;;
42864;SDS011;28511;42.680;23.252;2023-04-08T01:56:35;8.10;;;4.15;;
42864;SDS011;28511;42.680;23.252;2023-04-08T01:59:01;6.78;;;4.28;;
42864;SDS011;28511;42.680;23.252;2023-04-08T02:01:31;4.85;;;3.90;;
42864;SDS011;28511;42.680;23.252;2023-04-08T02:03:56;8.85;;;5.22;;
42864;SDS011;28511;42.680;23.252;2023-04-08T02:06:24;6.95;;;3.88;;
42864;SDS011;28511;42.680;23.252;2023-04-08T02:08:50;4.53;;;3.42;;
42864;SDS011;28511;42.680;23.252;2023-04-08T02:11:15;9.52;;;6.00;;
42864;SDS011;28511;42.680;23.252;2023-04-08T02:13:41;5.70;;;4.57;;
42864;SDS011;28511;42.680;23.252;2023-04-08T02:16:22;8.75;;;5.03;;
42864;SDS011;28511;42.680;23.252;2023-04-08T02:18:52;7.00;;;5.28;;
42864;SDS011;28511;42.680;23.252;2023-04-08T02:21:19;6.50;;;4.03;;
42864;SDS011;28511;42.680;23.252;2023-04-08T02:23:47;13.18;;;5.85;;
42864;SDS011;28511;42.680;23.252;2023-04-08T02:26:14;6.45;;;5.13;;
42864;SDS011;28511;42.680;23.252;2023-04-08T02:28:40;10.30;;;4.85;;
42864;SDS011;28511;42.680;23.252;2023-04-08T02:31:10;5.88;;;3.83;;
42864;SDS011;28511;42.680;23.252;2023-04-08T02:33:38;6.68;;;4.30;;
42864;SDS011;28511;42.680;23.252;2023-04-08T02:36:03;10.27;;;5.30;;
42864;SDS011;28511;42.680;23.252;2023-04-08T02:38:29;16.30;;;4.80;;
42864;SDS011;28511;42.680;23.252;2023-04-08T02:40:55;5.43;;;4.70;;
42864;SDS011;28511;42.680;23.252;2023-04-08T02:43:20;6.40;;;4.88;;
42864;SDS011;28511;42.680;23.252;2023-04-08T02:45:46;6.90;;;4.65;;
42864;SDS011;28511;42.680;23.252;2023-04-08T02:48:11;8.40;;;3.60;;
42864;SDS011;28511;42.680;23.252;2023-04-08T02:50:36;8.35;;;4.35;;
42864;SDS011;28511;42.680;23.252;2023-04-08T02:53:02;4.60;;;3.65;;
42864;SDS011;28511;42.680;23.252;2023-04-08T02:55:27;8.18;;;4.90;;
42864;SDS011;28511;42.680;23.252;2023-04-08T02:57:52;7.22;;;5.28;;
42864;SDS011;28511;42.680;23.252;2023-04-08T03:00:18;7.25;;;4.78;;
42864;SDS011;28511;42.680;23.252;2023-04-08T03:02:43;8.10;;;4.93;;
42864;SDS011;28511;42.680;23.252;2023-04-08T03:05:08;6.78;;;4.15;;
42864;SDS011;28511;42.680;23.252;2023-04-08T03:07:34;10.32;;;5.30;;
42864;SDS011;28511;42.680;23.252;2023-04-08T03:10:00;6.68;;;4.80;;
42864;SDS011;28511;42.680;23.252;2023-04-08T03:12:25;6.72;;;3.67;;
42864;SDS011;28511;42.680;23.252;2023-04-08T03:14:51;4.10;;;2.83;;
42864;SDS011;28511;42.680;23.252;2023-04-08T03:17:17;7.63;;;5.10;;
42864;SDS011;28511;42.680;23.252;2023-04-08T03:19:42;8.55;;;5.57;;
42864;SDS011;28511;42.680;23.252;2023-04-08T03:22:07;5.32;;;3.65;;
42864;SDS011;28511;42.680;23.252;2023-04-08T03:24:34;7.20;;;3.88;;
42864;SDS011;28511;42.680;23.252;2023-04-08T03:26:59;13.32;;;5.43;;
42864;SDS011;28511;42.680;23.252;2023-04-08T03:29:24;3.97;;;3.38;;
42864;SDS011;28511;42.680;23.252;2023-04-08T03:31:50;7.78;;;4.80;;
42864;SDS011;28511;42.680;23.252;2023-04-08T03:34:15;6.95;;;4.15;;
42864;SDS011;28511;42.680;23.252;2023-04-08T03:36:40;8.15;;;2.97;;
42864;SDS011;28511;42.680;23.252;2023-04-08T03:39:06;8.73;;;4.43;;
42864;SDS011;28511;42.680;23.252;2023-04-08T03:41:31;8.32;;;4.28;;
42864;SDS011;28511;42.680;23.252;2023-04-08T03:43:56;8.98;;;4.75;;
42864;SDS011;28511;42.680;23.252;2023-04-08T03:46:23;9.88;;;5.03;;
42864;SDS011;28511;42.680;23.252;2023-04-08T03:48:48;8.02;;;3.65;;
42864;SDS011;28511;42.680;23.252;2023-04-08T03:51:13;4.60;;;2.88;;
42864;SDS011;28511;42.680;23.252;2023-04-08T03:53:38;6.22;;;4.63;;
42864;SDS011;28511;42.680;23.252;2023-04-08T03:56:04;9.88;;;4.03;;
42864;SDS011;28511;42.680;23.252;2023-04-08T03:58:29;8.40;;;5.85;;
42864;SDS011;28511;42.680;23.252;2023-04-08T04:00:55;6.68;;;4.70;;
42864;SDS011;28511;42.680;23.252;2023-04-08T04:03:21;11.68;;;4.63;;
42864;SDS011;28511;42.680;23.252;2023-04-08T04:05:46;4.15;;;3.55;;
42864;SDS011;28511;42.680;23.252;2023-04-08T04:08:11;7.82;;;5.68;;
42864;SDS011;28511;42.680;23.252;2023-04-08T04:10:37;5.30;;;4.75;;
42864;SDS011;28511;42.680;23.252;2023-04-08T04:13:02;6.53;;;3.55;;
42864;SDS011;28511;42.680;23.252;2023-04-08T04:15:27;8.15;;;5.13;;
42864;SDS011;28511;42.680;23.252;2023-04-08T04:17:53;6.95;;;3.33;;
42864;SDS011;28511;42.680;23.252;2023-04-08T04:20:18;8.32;;;4.03;;
42864;SDS011;28511;42.680;23.252;2023-04-08T04:22:43;8.15;;;4.93;;
42864;SDS011;28511;42.680;23.252;2023-04-08T04:25:09;8.55;;;4.68;;
42864;SDS011;28511;42.680;23.252;2023-04-08T04:27:34;7.13;;;4.55;;
42864;SDS011;28511;42.680;23.252;2023-04-08T04:30:01;8.07;;;5.03;;
42864;SDS011;28511;42.680;23.252;2023-04-08T04:32:26;8.55;;;5.03;;
42864;SDS011;28511;42.680;23.252;2023-04-08T04:34:51;9.27;;;5.68;;
42864;SDS011;28511;42.680;23.252;2023-04-08T04:37:16;4.80;;;3.95;;
42864;SDS011;28511;42.680;23.252;2023-04-08T04:39:42;7.03;;;5.03;;
42864;SDS011;28511;42.680;23.252;2023-04-08T04:42:07;9.05;;;4.47;;
42864;SDS011;28511;42.680;23.252;2023-04-08T04:44:33;7.70;;;5.18;;
42864;SDS011;28511;42.680;23.252;2023-04-08T04:46:58;9.13;;;4.85;;
42864;SDS011;28511;42.680;23.252;2023-04-08T04:49:23;5.18;;;4.35;;
42864;SDS011;28511;42.680;23.252;2023-04-08T04:51:49;11.55;;;3.97;;
42864;SDS011;28511;42.680;23.252;2023-04-08T04:54:14;7.65;;;3.97;;
42864;SDS011;28511;42.680;23.252;2023-04-08T04:56:40;6.95;;;3.65;;
42864;SDS011;28511;42.680;23.252;2023-04-08T04:59:05;7.15;;;3.75;;
42864;SDS011;28511;42.680;23.252;2023-04-08T05:01:31;7.35;;;3.90;;
42864;SDS011;28511;42.680;23.252;2023-04-08T05:03:56;5.13;;;3.85;;
42864;SDS011;28511;42.680;23.252;2023-04-08T05:06:22;6.03;;;4.28;;
42864;SDS011;28511;42.680;23.252;2023-04-08T05:08:47;5.20;;;2.78;;
42864;SDS011;28511;42.680;23.252;2023-04-08T05:11:12;6.15;;;4.80;;
42864;SDS011;28511;42.680;23.252;2023-04-08T05:13:38;5.13;;;4.43;;
42864;SDS011;28511;42.680;23.252;2023-04-08T05:16:03;8.18;;;3.28;;
42864;SDS011;28511;42.680;23.252;2023-04-08T05:18:28;8.68;;;5.07;;
42864;SDS011;28511;42.680;23.252;2023-04-08T05:20:54;6.13;;;3.33;;
42864;SDS011;28511;42.680;23.252;2023-04-08T05:23:19;5.90;;;3.50;;
42864;SDS011;28511;42.680;23.252;2023-04-08T05:25:44;9.65;;;6.85;;
42864;SDS011;28511;42.680;23.252;2023-04-08T05:28:10;7.82;;;5.03;;
42864;SDS011;28511;42.680;23.252;2023-04-08T05:30:35;13.07;;;5.88;;
42864;SDS011;28511;42.680;23.252;2023-04-08T05:33:00;6.35;;;4.15;;
42864;SDS011;28511;42.680;23.252;2023-04-08T05:35:26;9.48;;;5.55;;
42864;SDS011;28511;42.680;23.252;2023-04-08T05:37:51;6.05;;;4.47;;
42864;SDS011;28511;42.680;23.252;2023-04-08T05:40:16;11.13;;;5.13;;
42864;SDS011;28511;42.680;23.252;2023-04-08T05:42:42;5.85;;;4.50;;
42864;SDS011;28511;42.680;23.252;2023-04-08T05:45:07;9.52;;;5.65;;
42864;SDS011;28511;42.680;23.252;2023-04-08T05:47:33;7.65;;;6.10;;
42864;SDS011;28511;42.680;23.252;2023-04-08T05:49:58;9.48;;;6.35;;
42864;SDS011;28511;42.680;23.252;2023-04-08T05:52:23;11.73;;;6.82;;
42864;SDS011;28511;42.680;23.252;2023-04-08T05:54:48;14.77;;;7.43;;
42864;SDS011;28511;42.680;23.252;2023-04-08T05:57:14;7.45;;;4.43;;
42864;SDS011;28511;42.680;23.252;2023-04-08T05:59:40;7.10;;;4.82;;
42864;SDS011;28511;42.680;23.252;2023-04-08T06:02:06;8.77;;;5.47;;
42864;SDS011;28511;42.680;23.252;2023-04-08T06:04:31;10.45;;;5.75;;
42864;SDS011;28511;42.680;23.252;2023-04-08T06:06:56;8.55;;;5.18;;
42864;SDS011;28511;42.680;23.252;2023-04-08T06:09:23;7.70;;;4.97;;
42864;SDS011;28511;42.680;23.252;2023-04-08T06:11:49;9.85;;;5.32;;
42864;SDS011;28511;42.680;23.252;2023-04-08T06:14:15;11.55;;;5.95;;
42864;SDS011;28511;42.680;23.252;2023-04-08T06:16:40;10.52;;;6.07;;
42864;SDS011;28511;42.680;23.252;2023-04-08T06:19:06;7.30;;;4.68;;
42864;SDS011;28511;42.680;23.252;2023-04-08T06:21:31;15.40;;;7.35;;
42864;SDS011;28511;42.680;23.252;2023-04-08T06:23:56;8.80;;;5.35;;
42864;SDS011;28511;42.680;23.252;2023-04-08T06:26:21;10.70;;;6.70;;
42864;SDS011;28511;42.680;23.252;2023-04-08T06:28:47;14.60;;;8.18;;
42864;SDS011;28511;42.680;23.252;2023-04-08T06:31:12;9.40;;;7.40;;
42864;SDS011;28511;42.680;23.252;2023-04-08T06:33:37;11.98;;;7.03;;
42864;SDS011;28511;42.680;23.252;2023-04-08T06:36:03;12.20;;;7.00;;
42864;SDS011;28511;42.680;23.252;2023-04-08T06:38:29;13.13;;;6.50;;
42864;SDS011;28511;42.680;23.252;2023-04-08T06:40:54;13.82;;;8.10;;
42864;SDS011;28511;42.680;23.252;2023-04-08T06:43:20;17.60;;;9.32;;
42864;SDS011;28511;42.680;23.252;2023-04-08T06:45:45;18.30;;;8.20;;
42864;SDS011;28511;42.680;23.252;2023-04-08T06:48:11;12.70;;;5.95;;
42864;SDS011;28511;42.680;23.252;2023-04-08T06:50:36;10.90;;;6.57;;
42864;SDS011;28511;42.680;23.252;2023-04-08T06:53:01;12.75;;;8.80;;
42864;SDS011;28511;42.680;23.252;2023-04-08T06:55:27;11.13;;;6.85;;
42864;SDS011;28511;42.680;23.252;2023-04-08T06:57:52;11.00;;;5.50;;
42864;SDS011;28511;42.680;23.252;2023-04-08T07:00:17;16.98;;;6.72;;
42864;SDS011;28511;42.680;23.252;2023-04-08T07:02:42;10.32;;;7.63;;
42864;SDS011;28511;42.680;23.252;2023-04-08T07:05:08;11.52;;;6.93;;
42864;SDS011;28511;42.680;23.252;2023-04-08T07:07:34;7.22;;;4.82;;
42864;SDS011;28511;42.680;23.252;2023-04-08T07:09:59;11.20;;;5.05;;
42864;SDS011;28511;42.680;23.252;2023-04-08T07:12:25;13.85;;;5.80;;
42864;SDS011;28511;42.680;23.252;2023-04-08T07:14:50;7.47;;;4.57;;
42864;SDS011;28511;42.680;23.252;2023-04-08T07:17:17;12.00;;;5.85;;
42864;SDS011;28511;42.680;23.252;2023-04-08T07:19:42;13.90;;;6.13;;
42864;SDS011;28511;42.680;23.252;2023-04-08T07:22:08;8.55;;;4.60;;
42864;SDS011;28511;42.680;23.252;2023-04-08T07:24:33;8.52;;;4.43;;
42864;SDS011;28511;42.680;23.252;2023-04-08T07:26:58;12.60;;;7.78;;
42864;SDS011;28511;42.680;23.252;2023-04-08T07:29:23;8.60;;;6.32;;
42864;SDS011;28511;42.680;23.252;2023-04-08T07:31:49;7.10;;;4.10;;
42864;SDS011;28511;42.680;23.252;2023-04-08T07:34:15;7.07;;;4.25;;
42864;SDS011;28511;42.680;23.252;2023-04-08T07:36:40;6.80;;;4.20;;
42864;SDS011;28511;42.680;23.252;2023-04-08T07:39:06;7.23;;;4.03;;
42864;SDS011;28511;42.680;23.252;2023-04-08T07:41:32;9.02;;;4.78;;
42864;SDS011;28511;42.680;23.252;2023-04-08T07:43:57;11.02;;;5.03;;
42864;SDS011;28511;42.680;23.252;2023-04-08T07:46:23;7.97;;;4.97;;
42864;SDS011;28511;42.680;23.252;2023-04-08T07:48:48;5.28;;;4.30;;
42864;SDS011;28511;42.680;23.252;2023-04-08T07:51:13;7.82;;;4.47;;
42864;SDS011;28511;42.680;23.252;2023-04-08T07:53:39;3.80;;;3.47;;
42864;SDS011;28511;42.680;23.252;2023-04-08T07:56:11;5.88;;;4.22;;
42864;SDS011;28511;42.680;23.252;2023-04-08T07:58:36;6.90;;;4.13;;
42864;SDS011;28511;42.680;23.252;2023-04-08T08:01:02;5.00;;;3.58;;
42864;SDS011;28511;42.680;23.252;2023-04-08T08:03:27;8.50;;;3.13;;
42864;SDS011;28511;42.680;23.252;2023-04-08T08:05:52;5.40;;;4.20;;
42864;SDS011;28511;42.680;23.252;2023-04-08T08:08:18;7.60;;;4.40;;
42864;SDS011;28511;42.680;23.252;2023-04-08T08:10:43;3.57;;;2.60;;
42864;SDS011;28511;42.680;23.252;2023-04-08T08:13:08;5.80;;;3.78;;
42864;SDS011;28511;42.680;23.252;2023-04-08T08:15:33;6.43;;;4.57;;
42864;SDS011;28511;42.680;23.252;2023-04-08T08:17:59;4.95;;;3.47;;
42864;SDS011;28511;42.680;23.252;2023-04-08T08:20:25;7.85;;;5.55;;
42864;SDS011;28511;42.680;23.252;2023-04-08T08:22:51;6.00;;;4.40;;
42864;SDS011;28511;42.680;23.252;2023-04-08T08:25:16;9.18;;;4.25;;
42864;SDS011;28511;42.680;23.252;2023-04-08T08:27:41;6.75;;;4.57;;
42864;SDS011;28511;42.680;23.252;2023-04-08T08:30:07;5.85;;;4.65;;
42864;SDS011;28511;42.680;23.252;2023-04-08T08:32:33;6.85;;;3.85;;
42864;SDS011;28511;42.680;23.252;2023-04-08T08:34:58;10.65;;;4.30;;
42864;SDS011;28511;42.680;23.252;2023-04-08T08:37:24;8.57;;;2.63;;
42864;SDS011;28511;42.680;23.252;2023-04-08T08:39:49;6.68;;;3.95;;
42864;SDS011;28511;42.680;23.252;2023-04-08T08:42:21;6.68;;;4.00;;
42864;SDS011;28511;42.680;23.252;2023-04-08T08:44:47;5.78;;;4.88;;
42864;SDS011;28511;42.680;23.252;2023-04-08T08:47:12;5.28;;;3.35;;
42864;SDS011;28511;42.680;23.252;2023-04-08T08:49:38;7.68;;;4.95;;
42864;SDS011;28511;42.680;23.252;2023-04-08T08:52:03;6.75;;;3.88;;
42864;SDS011;28511;42.680;23.252;2023-04-08T08:54:28;5.78;;;3.53;;
42864;SDS011;28511;42.680;23.252;2023-04-08T08:56:55;6.90;;;3.78;;
42864;SDS011;28511;42.680;23.252;2023-04-08T08:59:20;9.43;;;4.77;;
42864;SDS011;28511;42.680;23.252;2023-04-08T09:01:46;4.67;;;3.90;;
42864;SDS011;28511;42.680;23.252;2023-04-08T09:04:18;4.68;;;3.30;;
42864;SDS011;28511;42.680;23.252;2023-04-08T09:06:47;7.88;;;4.68;;
42864;SDS011;28511;42.680;23.252;2023-04-08T09:09:14;6.22;;;3.90;;
42864;SDS011;28511;42.680;23.252;2023-04-08T09:11:40;6.18;;;4.18;;
42864;SDS011;28511;42.680;23.252;2023-04-08T09:16:42;8.30;;;4.47;;
42864;SDS011;28511;42.680;23.252;2023-04-08T09:19:09;5.93;;;3.10;;
42864;SDS011;28511;42.680;23.252;2023-04-08T09:21:35;8.98;;;5.00;;
42864;SDS011;28511;42.680;23.252;2023-04-08T09:24:00;8.95;;;5.07;;
42864;SDS011;28511;42.680;23.252;2023-04-08T09:26:25;6.07;;;3.93;;
42864;SDS011;28511;42.680;23.252;2023-04-08T09:29:00;8.70;;;4.35;;
42864;SDS011;28511;42.680;23.252;2023-04-08T09:31:30;7.25;;;4.28;;
42864;SDS011;28511;42.680;23.252;2023-04-08T09:33:56;8.48;;;4.22;;
42864;SDS011;28511;42.680;23.252;2023-04-08T09:36:22;7.25;;;4.53;;
42864;SDS011;28511;42.680;23.252;2023-04-08T09:38:47;7.50;;;4.85;;
42864;SDS011;28511;42.680;23.252;2023-04-08T09:41:14;8.13;;;4.90;;
42864;SDS011;28511;42.680;23.252;2023-04-08T09:43:43;6.75;;;4.20;;
42864;SDS011;28511;42.680;23.252;2023-04-08T09:46:13;7.70;;;4.28;;
42864;SDS011;28511;42.680;23.252;2023-04-08T09:48:39;6.80;;;4.28;;
42864;SDS011;28511;42.680;23.252;2023-04-08T09:51:05;7.18;;;4.75;;
42864;SDS011;28511;42.680;23.252;2023-04-08T09:53:38;8.18;;;3.97;;
42864;SDS011;28511;42.680;23.252;2023-04-08T09:56:09;8.55;;;3.78;;
42864;SDS011;28511;42.680;23.252;2023-04-08T09:58:55;8.07;;;3.83;;
42864;SDS011;28511;42.680;23.252;2023-04-08T10:01:35;4.45;;;2.92;;
42864;SDS011;28511;42.680;23.252;2023-04-08T10:04:01;4.53;;;3.23;;
42864;SDS011;28511;42.680;23.252;2023-04-08T10:06:29;5.93;;;3.45;;
42864;SDS011;28511;42.680;23.252;2023-04-08T10:08:55;5.00;;;2.78;;
42864;SDS011;28511;42.680;23.252;2023-04-08T10:11:20;6.32;;;3.28;;
42864;SDS011;28511;42.680;23.252;2023-04-08T10:13:46;5.53;;;2.87;;
42864;SDS011;28511;42.680;23.252;2023-04-08T10:16:21;7.68;;;3.30;;
42864;SDS011;28511;42.680;23.252;2023-04-08T10:18:48;7.75;;;2.97;;
42864;SDS011;28511;42.680;23.252;2023-04-08T10:23:57;5.03;;;3.85;;
42864;SDS011;28511;42.680;23.252;2023-04-08T10:26:30;4.63;;;2.90;;
42864;SDS011;28511;42.680;23.252;2023-04-08T10:31:43;4.38;;;3.03;;
42864;SDS011;28511;42.680;23.252;2023-04-08T10:34:18;5.85;;;3.75;;
42864;SDS011;28511;42.680;23.252;2023-04-08T10:36:44;8.35;;;3.97;;
42864;SDS011;28511;42.680;23.252;2023-04-08T10:39:09;7.90;;;4.63;;
42864;SDS011;28511;42.680;23.252;2023-04-08T10:41:45;6.75;;;4.25;;
42864;SDS011;28511;42.680;23.252;2023-04-08T10:44:23;7.10;;;4.68;;
42864;SDS011;28511;42.680;23.252;2023-04-08T10:46:49;3.22;;;2.92;;
42864;SDS011;28511;42.680;23.252;2023-04-08T10:49:15;10.52;;;5.07;;
42864;SDS011;28511;42.680;23.252;2023-04-08T10:51:41;5.90;;;3.90;;
42864;SDS011;28511;42.680;23.252;2023-04-08T10:54:08;4.70;;;2.92;;
42864;SDS011;28511;42.680;23.252;2023-04-08T10:56:34;9.07;;;3.53;;
42864;SDS011;28511;42.680;23.252;2023-04-08T10:59:00;6.32;;;4.00;;
42864;SDS011;28511;42.680;23.252;2023-04-08T11:01:25;5.28;;;3.53;;
42864;SDS011;28511;42.680;23.252;2023-04-08T11:03:51;9.63;;;4.30;;
42864;SDS011;28511;42.680;23.252;2023-04-08T11:06:17;5.85;;;3.83;;
42864;SDS011;28511;42.680;23.252;2023-04-08T11:08:43;4.70;;;3.08;;
42864;SDS011;28511;42.680;23.252;2023-04-08T11:11:09;6.88;;;3.92;;
42864;SDS011;28511;42.680;23.252;2023-04-08T11:13:35;6.05;;;3.97;;
42864;SDS011;28511;42.680;23.252;2023-04-08T11:16:02;5.40;;;2.92;;
42864;SDS011;28511;42.680;23.252;2023-04-08T11:18:29;7.30;;;4.38;;
42864;SDS011;28511;42.680;23.252;2023-04-08T11:20:55;4.55;;;3.03;;
42864;SDS011;28511;42.680;23.252;2023-04-08T11:23:21;4.47;;;2.95;;
42864;SDS011;28511;42.680;23.252;2023-04-08T11:25:48;4.72;;;3.42;;
42864;SDS011;28511;42.680;23.252;2023-04-08T11:28:14;6.90;;;4.32;;
42864;SDS011;28511;42.680;23.252;2023-04-08T11:30:41;5.55;;;2.45;;
42864;SDS011;28511;42.680;23.252;2023-04-08T11:33:06;4.10;;;3.47;;
42864;SDS011;28511;42.680;23.252;2023-04-08T11:35:32;7.53;;;4.32;;
42864;SDS011;28511;42.680;23.252;2023-04-08T11:37:57;5.05;;;3.40;;
42864;SDS011;28511;42.680;23.252;2023-04-08T11:40:23;4.72;;;2.50;;
42864;SDS011;28511;42.680;23.252;2023-04-08T11:42:49;6.25;;;4.13;;
42864;SDS011;28511;42.680;23.252;2023-04-08T11:45:15;4.40;;;3.05;;
42864;SDS011;28511;42.680;23.252;2023-04-08T11:47:40;4.95;;;3.03;;
42864;SDS011;28511;42.680;23.252;2023-04-08T11:50:06;4.50;;;3.17;;
42864;SDS011;28511;42.680;23.252;2023-04-08T11:52:45;4.95;;;3.00;;
42864;SDS011;28511;42.680;23.252;2023-04-08T11:55:11;4.85;;;2.72;;
42864;SDS011;28511;42.680;23.252;2023-04-08T11:57:37;3.50;;;2.30;;
42864;SDS011;28511;42.680;23.252;2023-04-08T12:00:04;5.47;;;2.72;;
42864;SDS011;28511;42.680;23.252;2023-04-08T12:02:30;5.53;;;3.20;;
42864;SDS011;28511;42.680;23.252;2023-04-08T12:04:55;5.93;;;1.88;;
42864;SDS011;28511;42.680;23.252;2023-04-08T12:07:20;4.15;;;2.08;;
42864;SDS011;28511;42.680;23.252;2023-04-08T12:09:46;4.93;;;2.65;;
42864;SDS011;28511;42.680;23.252;2023-04-08T12:12:11;5.47;;;2.40;;
42864;SDS011;28511;42.680;23.252;2023-04-08T12:14:36;3.88;;;2.67;;
42864;SDS011;28511;42.680;23.252;2023-04-08T12:17:02;4.20;;;3.47;;
42864;SDS011;28511;42.680;23.252;2023-04-08T12:19:27;4.68;;;2.03;;
42864;SDS011;28511;42.680;23.252;2023-04-08T12:21:52;3.30;;;2.20;;
42864;SDS011;28511;42.680;23.252;2023-04-08T12:24:18;5.45;;;3.08;;
42864;SDS011;28511;42.680;23.252;2023-04-08T12:26:44;3.53;;;2.53;;
42864;SDS011;28511;42.680;23.252;2023-04-08T12:29:09;4.68;;;3.13;;
42864;SDS011;28511;42.680;23.252;2023-04-08T12:31:35;2.75;;;1.90;;
42864;SDS011;28511;42.680;23.252;2023-04-08T12:34:01;3.08;;;2.67;;
42864;SDS011;28511;42.680;23.252;2023-04-08T12:36:26;3.20;;;2.60;;
42864;SDS011;28511;42.680;23.252;2023-04-08T12:38:51;6.00;;;3.40;;
42864;SDS011;28511;42.680;23.252;2023-04-08T12:41:17;5.55;;;3.15;;
42864;SDS011;28511;42.680;23.252;2023-04-08T12:43:42;2.50;;;2.17;;
42864;SDS011;28511;42.680;23.252;2023-04-08T12:46:07;4.28;;;3.17;;
42864;SDS011;28511;42.680;23.252;2023-04-08T12:48:32;4.32;;;2.28;;
42864;SDS011;28511;42.680;23.252;2023-04-08T12:50:58;9.50;;;3.53;;
42864;SDS011;28511;42.680;23.252;2023-04-08T12:53:23;6.22;;;3.47;;
42864;SDS011;28511;42.680;23.252;2023-04-08T12:55:48;2.70;;;1.75;;
42864;SDS011;28511;42.680;23.252;2023-04-08T12:58:15;3.58;;;2.33;;
42864;SDS011;28511;42.680;23.252;2023-04-08T13:00:40;3.33;;;2.30;;
42864;SDS011;28511;42.680;23.252;2023-04-08T13:03:10;4.15;;;2.22;;
42864;SDS011;28511;42.680;23.252;2023-04-08T13:05:35;2.85;;;2.08;;
42864;SDS011;28511;42.680;23.252;2023-04-08T13:08:01;3.40;;;2.67;;
42864;SDS011;28511;42.680;23.252;2023-04-08T13:10:27;3.20;;;2.88;;
42864;SDS011;28511;42.680;23.252;2023-04-08T13:12:52;2.60;;;2.25;;
42864;SDS011;28511;42.680;23.252;2023-04-08T13:15:17;5.67;;;3.10;;
42864;SDS011;28511;42.680;23.252;2023-04-08T13:17:43;4.22;;;2.10;;
42864;SDS011;28511;42.680;23.252;2023-04-08T13:20:09;3.45;;;2.17;;
42864;SDS011;28511;42.680;23.252;2023-04-08T13:22:35;5.03;;;2.47;;
42864;SDS011;28511;42.680;23.252;2023-04-08T13:25:00;2.92;;;1.73;;
42864;SDS011;28511;42.680;23.252;2023-04-08T13:27:26;3.58;;;2.50;;
42864;SDS011;28511;42.680;23.252;2023-04-08T13:29:51;3.88;;;3.05;;
42864;SDS011;28511;42.680;23.252;2023-04-08T13:32:16;7.47;;;3.38;;
42864;SDS011;28511;42.680;23.252;2023-04-08T13:34:41;7.65;;;4.32;;
42864;SDS011;28511;42.680;23.252;2023-04-08T13:37:07;5.43;;;3.00;;
42864;SDS011;28511;42.680;23.252;2023-04-08T13:39:33;3.63;;;3.00;;
42864;SDS011;28511;42.680;23.252;2023-04-08T13:41:58;5.72;;;3.55;;
42864;SDS011;28511;42.680;23.252;2023-04-08T13:44:23;4.03;;;2.60;;
42864;SDS011;28511;42.680;23.252;2023-04-08T13:46:48;3.28;;;2.47;;
42864;SDS011;28511;42.680;23.252;2023-04-08T13:49:14;3.95;;;3.55;;
42864;SDS011;28511;42.680;23.252;2023-04-08T13:51:40;5.22;;;3.08;;
42864;SDS011;28511;42.680;23.252;2023-04-08T13:54:05;5.45;;;2.58;;
42864;SDS011;28511;42.680;23.252;2023-04-08T13:56:31;3.28;;;2.75;;
42864;SDS011;28511;42.680;23.252;2023-04-08T13:58:56;6.55;;;3.45;;
42864;SDS011;28511;42.680;23.252;2023-04-08T14:01:21;4.30;;;3.03;;
42864;SDS011;28511;42.680;23.252;2023-04-08T14:03:46;3.92;;;2.90;;
42864;SDS011;28511;42.680;23.252;2023-04-08T14:06:14;5.20;;;2.90;;
42864;SDS011;28511;42.680;23.252;2023-04-08T14:08:39;4.57;;;2.35;;
42864;SDS011;28511;42.680;23.252;2023-04-08T14:11:04;2.92;;;1.40;;
42864;SDS011;28511;42.680;23.252;2023-04-08T14:13:30;7.35;;;3.13;;
42864;SDS011;28511;42.680;23.252;2023-04-08T14:15:56;3.53;;;1.77;;
42864;SDS011;28511;42.680;23.252;2023-04-08T14:18:22;1.52;;;1.02;;
42864;SDS011;28511;42.680;23.252;2023-04-08T14:20:48;2.63;;;2.38;;
42864;SDS011;28511;42.680;23.252;2023-04-08T14:23:13;4.15;;;2.90;;
42864;SDS011;28511;42.680;23.252;2023-04-08T14:25:38;2.70;;;2.00;;
42864;SDS011;28511;42.680;23.252;2023-04-08T14:28:04;2.92;;;2.00;;
42864;SDS011;28511;42.680;23.252;2023-04-08T14:30:30;5.65;;;3.85;;
42864;SDS011;28511;42.680;23.252;2023-04-08T14:32:55;4.90;;;2.13;;
42864;SDS011;28511;42.680;23.252;2023-04-08T14:35:23;7.15;;;4.00;;
42864;SDS011;28511;42.680;23.252;2023-04-08T14:37:48;4.28;;;2.67;;
42864;SDS011;28511;42.680;23.252;2023-04-08T14:40:13;4.18;;;2.00;;